Terminal Aerodrome Forecast
Issued by NWS Rapid City, SD

Home | Current Version | Previous Version | Text Only | Print | Product List | Glossary Off
Versions: 1 2 3 4 5 6 7 8 9 10 11 12 13 14 15 16 17 18 19 20

000
FTUS43 KUNR 162300
TAFRAP
TAF
KRAP 162322Z 1700/1724 14010KT P6SM OVC011
     FM170400 13007KT P6SM OVC005
     FM171200 13009KT 5SM BR OVC004
     FM171700 14011KT P6SM OVC007=

USA.gov is the U.S. government's official web portal to all federal, state and local government web resources and services.